SBOSBO LIG / LFBL
Speedbird OnlineSpeedbird Online LIG / LFBL

Limoges Airport
22:15 13°C

Location Limoges, France
Latitude: 45.86280059814453
Longitude: 1.1794400215148926
Web Wikipedia
Altitude 396 Meter / 1300 Feet
Distance 632 KM / 393 Miles
from London.
Time Zone UTC +2 hours (Europe/Paris)
Codes IATA: LIG
ICAO: LFBL
Currency £1 equals EUR 1.12
Runways
RunwayLength (m)Surface
032500Asphalt
212500Asphalt
Radio
TypeDescriptionFrequency
APPLIMOGES APP119.2
ATISATIS128.075
INFOLIMOGES INFO124.05
TWRLIMOGES TWR118.7
Live ATC
METAR LFBL 242000Z AUTO 27002KT 9999 OVC033/// ///CB 13/12 Q1014 TEMPO 3000 TSRA BECMG BKN030
TAF TAF AMD LFBL 241909Z 2419/2518 28006KT 9999 BKN030 TEMPO 2419/2421 SHRA BKN020CB PROB30 TEMPO 2419/2421 3000 TSRA BKN020CB TEMPO 2422/2510 1500 MIFG BKN005 PROB40 2500/2509 0300 FG VV/// TEMPO 2510/2517 -SHRA BKN020TCU PROB40 TEMPO 2510/2512 BKN008
Weather As Of 24 Sep 2022 22:15
Description Overcast clouds
Wind 4 km/h from West (270°)
Cloud Cover 100%
Precipitation Rain: none, Snow: none
Sunrise 07:44
Sunset 19:50
Rotations During the last 90 days there were
11 flights from SOU
11 flights to SOU


© 2017-2022 Speedbird Online